sensor_id;sensor_type;location;lat;lon;timestamp;temperature;humidity
34873;DHT22;21084;51.098;14.506;2023-09-19T00:00:37;15.30;99.90
34873;DHT22;21084;51.098;14.506;2023-09-19T00:03:05;15.20;99.90
34873;DHT22;21084;51.098;14.506;2023-09-19T00:05:34;15.20;99.90
34873;DHT22;21084;51.098;14.506;2023-09-19T00:08:03;15.20;99.90
34873;DHT22;21084;51.098;14.506;2023-09-19T00:10:32;15.10;99.90
34873;DHT22;21084;51.098;14.506;2023-09-19T00:13:02;15.10;99.90
34873;DHT22;21084;51.098;14.506;2023-09-19T00:15:39;15.00;99.90
34873;DHT22;21084;51.098;14.506;2023-09-19T00:18:08;15.10;99.90
34873;DHT22;21084;51.098;14.506;2023-09-19T00:20:37;15.10;99.90
34873;DHT22;21084;51.098;14.506;2023-09-19T00:23:06;15.20;99.90
34873;DHT22;21084;51.098;14.506;2023-09-19T00:25:35;15.20;99.90
34873;DHT22;21084;51.098;14.506;2023-09-19T00:28:04;15.20;99.90
34873;DHT22;21084;51.098;14.506;2023-09-19T00:30:34;15.20;99.90
34873;DHT22;21084;51.098;14.506;2023-09-19T00:33:06;15.20;99.90
34873;DHT22;21084;51.098;14.506;2023-09-19T00:35:35;15.20;99.90
34873;DHT22;21084;51.098;14.506;2023-09-19T00:38:03;15.20;99.90
34873;DHT22;21084;51.098;14.506;2023-09-19T00:40:33;15.20;99.90
34873;DHT22;21084;51.098;14.506;2023-09-19T00:43:02;15.20;99.90
34873;DHT22;21084;51.098;14.506;2023-09-19T00:45:33;15.20;99.90
34873;DHT22;21084;51.098;14.506;2023-09-19T00:48:06;15.20;99.90
34873;DHT22;21084;51.098;14.506;2023-09-19T00:50:36;15.30;99.90
34873;DHT22;21084;51.098;14.506;2023-09-19T00:53:04;15.30;99.90
34873;DHT22;21084;51.098;14.506;2023-09-19T00:55:34;15.30;99.90
34873;DHT22;21084;51.098;14.506;2023-09-19T00:58:04;15.30;99.90
34873;DHT22;21084;51.098;14.506;2023-09-19T01:00:33;15.30;99.90
34873;DHT22;21084;51.098;14.506;2023-09-19T01:03:02;15.30;99.90
34873;DHT22;21084;51.098;14.506;2023-09-19T01:05:32;15.30;99.90
34873;DHT22;21084;51.098;14.506;2023-09-19T01:08:01;15.30;99.90
34873;DHT22;21084;51.098;14.506;2023-09-19T01:10:29;15.30;99.90
34873;DHT22;21084;51.098;14.506;2023-09-19T01:13:01;15.30;99.90
34873;DHT22;21084;51.098;14.506;2023-09-19T01:15:36;15.30;99.90
34873;DHT22;21084;51.098;14.506;2023-09-19T01:18:11;15.30;99.90
34873;DHT22;21084;51.098;14.506;2023-09-19T01:20:45;15.30;99.90
34873;DHT22;21084;51.098;14.506;2023-09-19T01:23:16;15.30;99.90
34873;DHT22;21084;51.098;14.506;2023-09-19T01:25:58;15.40;99.90
34873;DHT22;21084;51.098;14.506;2023-09-19T01:28:33;15.50;99.90
34873;DHT22;21084;51.098;14.506;2023-09-19T01:31:09;15.40;99.90
34873;DHT22;21084;51.098;14.506;2023-09-19T01:33:53;15.40;99.90
34873;DHT22;21084;51.098;14.506;2023-09-19T01:36:24;15.30;99.90
34873;DHT22;21084;51.098;14.506;2023-09-19T01:38:52;15.30;99.90
34873;DHT22;21084;51.098;14.506;2023-09-19T01:41:22;15.30;99.90
34873;DHT22;21084;51.098;14.506;2023-09-19T01:43:54;15.20;99.90
34873;DHT22;21084;51.098;14.506;2023-09-19T01:46:25;15.20;99.90
34873;DHT22;21084;51.098;14.506;2023-09-19T01:48:57;15.20;99.90
34873;DHT22;21084;51.098;14.506;2023-09-19T01:51:32;15.20;99.90
34873;DHT22;21084;51.098;14.506;2023-09-19T01:54:02;15.20;99.90
34873;DHT22;21084;51.098;14.506;2023-09-19T01:56:34;15.20;99.90
34873;DHT22;21084;51.098;14.506;2023-09-19T01:59:06;15.10;99.90
34873;DHT22;21084;51.098;14.506;2023-09-19T02:01:37;15.10;99.90
34873;DHT22;21084;51.098;14.506;2023-09-19T02:04:06;15.10;99.90
34873;DHT22;21084;51.098;14.506;2023-09-19T02:06:35;15.10;99.90
34873;DHT22;21084;51.098;14.506;2023-09-19T02:09:03;15.20;99.90
34873;DHT22;21084;51.098;14.506;2023-09-19T02:11:32;15.20;99.90
34873;DHT22;21084;51.098;14.506;2023-09-19T02:14:00;15.20;99.90
34873;DHT22;21084;51.098;14.506;2023-09-19T02:16:29;15.20;99.90
34873;DHT22;21084;51.098;14.506;2023-09-19T02:18:59;15.20;99.90
34873;DHT22;21084;51.098;14.506;2023-09-19T02:21:32;15.30;99.90
34873;DHT22;21084;51.098;14.506;2023-09-19T02:24:00;15.30;99.90
34873;DHT22;21084;51.098;14.506;2023-09-19T02:26:29;15.40;99.90
34873;DHT22;21084;51.098;14.506;2023-09-19T02:28:58;15.30;99.90
34873;DHT22;21084;51.098;14.506;2023-09-19T02:31:28;15.30;99.90
34873;DHT22;21084;51.098;14.506;2023-09-19T02:33:56;15.20;99.90
34873;DHT22;21084;51.098;14.506;2023-09-19T02:36:26;15.20;99.90
34873;DHT22;21084;51.098;14.506;2023-09-19T02:38:54;15.10;99.90
34873;DHT22;21084;51.098;14.506;2023-09-19T02:41:23;15.10;99.90
34873;DHT22;21084;51.098;14.506;2023-09-19T02:43:51;15.10;99.90
34873;DHT22;21084;51.098;14.506;2023-09-19T02:46:19;15.10;99.90
34873;DHT22;21084;51.098;14.506;2023-09-19T02:48:48;15.10;99.90
34873;DHT22;21084;51.098;14.506;2023-09-19T02:51:16;15.00;99.90
34873;DHT22;21084;51.098;14.506;2023-09-19T02:53:46;15.00;99.90
34873;DHT22;21084;51.098;14.506;2023-09-19T02:56:16;15.00;99.90
34873;DHT22;21084;51.098;14.506;2023-09-19T02:58:45;15.00;99.90
34873;DHT22;21084;51.098;14.506;2023-09-19T03:01:15;15.00;99.90
34873;DHT22;21084;51.098;14.506;2023-09-19T03:03:43;15.00;99.90
34873;DHT22;21084;51.098;14.506;2023-09-19T03:06:12;14.90;99.90
34873;DHT22;21084;51.098;14.506;2023-09-19T03:08:41;14.90;99.90
34873;DHT22;21084;51.098;14.506;2023-09-19T03:11:12;14.90;99.90
34873;DHT22;21084;51.098;14.506;2023-09-19T03:13:42;14.90;99.90
34873;DHT22;21084;51.098;14.506;2023-09-19T03:16:12;14.90;99.90
34873;DHT22;21084;51.098;14.506;2023-09-19T03:18:42;14.90;99.90
34873;DHT22;21084;51.098;14.506;2023-09-19T03:21:10;14.80;99.90
34873;DHT22;21084;51.098;14.506;2023-09-19T03:23:40;14.80;99.90
34873;DHT22;21084;51.098;14.506;2023-09-19T03:26:12;14.80;99.90
34873;DHT22;21084;51.098;14.506;2023-09-19T03:28:41;14.80;99.90
34873;DHT22;21084;51.098;14.506;2023-09-19T03:31:10;14.90;99.90
34873;DHT22;21084;51.098;14.506;2023-09-19T03:33:39;14.90;99.90
34873;DHT22;21084;51.098;14.506;2023-09-19T03:36:07;14.90;99.90
34873;DHT22;21084;51.098;14.506;2023-09-19T03:38:36;14.90;99.90
34873;DHT22;21084;51.098;14.506;2023-09-19T03:41:04;14.90;99.90
34873;DHT22;21084;51.098;14.506;2023-09-19T03:43:34;14.90;99.90
34873;DHT22;21084;51.098;14.506;2023-09-19T03:46:02;14.80;99.90
34873;DHT22;21084;51.098;14.506;2023-09-19T03:48:32;14.80;99.90
34873;DHT22;21084;51.098;14.506;2023-09-19T03:51:00;14.80;99.90
34873;DHT22;21084;51.098;14.506;2023-09-19T03:53:29;14.80;99.90
34873;DHT22;21084;51.098;14.506;2023-09-19T03:55:57;14.80;99.90
34873;DHT22;21084;51.098;14.506;2023-09-19T03:58:27;14.80;99.90
34873;DHT22;21084;51.098;14.506;2023-09-19T04:00:56;14.80;99.90
34873;DHT22;21084;51.098;14.506;2023-09-19T04:03:25;14.80;99.90
34873;DHT22;21084;51.098;14.506;2023-09-19T04:06:03;14.80;99.90
34873;DHT22;21084;51.098;14.506;2023-09-19T04:08:31;14.80;99.90
34873;DHT22;21084;51.098;14.506;2023-09-19T04:10:59;14.80;99.90
34873;DHT22;21084;51.098;14.506;2023-09-19T04:13:27;14.70;99.90
34873;DHT22;21084;51.098;14.506;2023-09-19T04:15:58;14.70;99.90
34873;DHT22;21084;51.098;14.506;2023-09-19T04:18:26;14.70;99.90
34873;DHT22;21084;51.098;14.506;2023-09-19T04:20:54;14.70;99.90
34873;DHT22;21084;51.098;14.506;2023-09-19T04:23:23;14.70;99.90
34873;DHT22;21084;51.098;14.506;2023-09-19T04:25:51;14.70;99.90
34873;DHT22;21084;51.098;14.506;2023-09-19T04:28:19;14.60;99.90
34873;DHT22;21084;51.098;14.506;2023-09-19T04:30:47;14.60;99.90
34873;DHT22;21084;51.098;14.506;2023-09-19T04:33:17;14.70;99.90
34873;DHT22;21084;51.098;14.506;2023-09-19T04:35:45;14.70;99.90
34873;DHT22;21084;51.098;14.506;2023-09-19T04:38:16;14.70;99.90
34873;DHT22;21084;51.098;14.506;2023-09-19T04:40:45;14.70;99.90
34873;DHT22;21084;51.098;14.506;2023-09-19T04:43:13;14.60;99.90
34873;DHT22;21084;51.098;14.506;2023-09-19T04:45:42;14.60;99.90
34873;DHT22;21084;51.098;14.506;2023-09-19T04:48:10;14.70;99.90
34873;DHT22;21084;51.098;14.506;2023-09-19T04:50:40;14.80;99.90
34873;DHT22;21084;51.098;14.506;2023-09-19T04:53:09;14.90;99.90
34873;DHT22;21084;51.098;14.506;2023-09-19T04:55:37;15.00;99.90
34873;DHT22;21084;51.098;14.506;2023-09-19T04:58:05;15.10;99.90
34873;DHT22;21084;51.098;14.506;2023-09-19T05:00:33;15.20;99.90
34873;DHT22;21084;51.098;14.506;2023-09-19T05:03:02;15.20;99.90
34873;DHT22;21084;51.098;14.506;2023-09-19T05:05:33;15.30;99.90
34873;DHT22;21084;51.098;14.506;2023-09-19T05:08:03;15.30;99.90
34873;DHT22;21084;51.098;14.506;2023-09-19T05:10:32;15.30;99.90
34873;DHT22;21084;51.098;14.506;2023-09-19T05:13:00;15.40;99.90
34873;DHT22;21084;51.098;14.506;2023-09-19T05:15:29;15.40;99.90
34873;DHT22;21084;51.098;14.506;2023-09-19T05:17:57;15.50;99.90
34873;DHT22;21084;51.098;14.506;2023-09-19T05:20:26;15.50;99.90
34873;DHT22;21084;51.098;14.506;2023-09-19T05:22:59;15.60;99.90
34873;DHT22;21084;51.098;14.506;2023-09-19T05:25:30;15.60;99.90
34873;DHT22;21084;51.098;14.506;2023-09-19T05:27:59;15.60;99.90
34873;DHT22;21084;51.098;14.506;2023-09-19T05:30:30;15.60;99.90
34873;DHT22;21084;51.098;14.506;2023-09-19T05:32:59;15.70;99.90
34873;DHT22;21084;51.098;14.506;2023-09-19T05:35:27;15.70;99.90
34873;DHT22;21084;51.098;14.506;2023-09-19T05:37:55;15.80;99.90
34873;DHT22;21084;51.098;14.506;2023-09-19T05:40:24;15.70;99.90
34873;DHT22;21084;51.098;14.506;2023-09-19T05:42:55;15.70;99.90
34873;DHT22;21084;51.098;14.506;2023-09-19T05:45:24;15.80;99.90
34873;DHT22;21084;51.098;14.506;2023-09-19T05:47:52;15.80;99.90
34873;DHT22;21084;51.098;14.506;2023-09-19T05:50:23;15.80;99.90
34873;DHT22;21084;51.098;14.506;2023-09-19T05:52:52;15.80;99.90
34873;DHT22;21084;51.098;14.506;2023-09-19T05:55:21;15.90;99.90
34873;DHT22;21084;51.098;14.506;2023-09-19T05:57:52;16.00;99.90
34873;DHT22;21084;51.098;14.506;2023-09-19T06:00:22;16.00;99.90
34873;DHT22;21084;51.098;14.506;2023-09-19T06:02:51;16.10;99.90
34873;DHT22;21084;51.098;14.506;2023-09-19T06:05:19;16.20;99.90
34873;DHT22;21084;51.098;14.506;2023-09-19T06:07:47;16.30;99.90
34873;DHT22;21084;51.098;14.506;2023-09-19T06:10:17;16.30;99.90
34873;DHT22;21084;51.098;14.506;2023-09-19T06:12:47;16.40;99.90
34873;DHT22;21084;51.098;14.506;2023-09-19T06:15:16;16.40;99.90
34873;DHT22;21084;51.098;14.506;2023-09-19T06:17:48;16.50;99.90
34873;DHT22;21084;51.098;14.506;2023-09-19T06:20:17;16.50;99.90
34873;DHT22;21084;51.098;14.506;2023-09-19T06:22:47;16.60;99.90
34873;DHT22;21084;51.098;14.506;2023-09-19T06:25:16;16.60;99.90
34873;DHT22;21084;51.098;14.506;2023-09-19T06:27:47;16.70;99.90
34873;DHT22;21084;51.098;14.506;2023-09-19T06:30:15;16.70;99.90
34873;DHT22;21084;51.098;14.506;2023-09-19T06:32:44;16.80;99.90
34873;DHT22;21084;51.098;14.506;2023-09-19T06:35:15;16.90;99.90
34873;DHT22;21084;51.098;14.506;2023-09-19T06:37:44;16.90;99.90
34873;DHT22;21084;51.098;14.506;2023-09-19T06:40:12;17.00;99.90
34873;DHT22;21084;51.098;14.506;2023-09-19T06:42:41;17.10;99.90
34873;DHT22;21084;51.098;14.506;2023-09-19T06:45:11;17.10;99.90
34873;DHT22;21084;51.098;14.506;2023-09-19T06:47:40;17.20;99.90
34873;DHT22;21084;51.098;14.506;2023-09-19T06:50:09;17.20;99.90
34873;DHT22;21084;51.098;14.506;2023-09-19T06:52:42;17.30;99.90
34873;DHT22;21084;51.098;14.506;2023-09-19T06:55:11;17.20;99.90
34873;DHT22;21084;51.098;14.506;2023-09-19T06:57:40;17.30;99.90
34873;DHT22;21084;51.098;14.506;2023-09-19T07:00:11;17.30;99.90
34873;DHT22;21084;51.098;14.506;2023-09-19T07:02:45;17.30;99.90
34873;DHT22;21084;51.098;14.506;2023-09-19T07:05:13;17.40;99.90
34873;DHT22;21084;51.098;14.506;2023-09-19T07:07:45;17.40;99.90
34873;DHT22;21084;51.098;14.506;2023-09-19T07:10:13;17.50;99.90
34873;DHT22;21084;51.098;14.506;2023-09-19T07:12:46;17.60;99.90
34873;DHT22;21084;51.098;14.506;2023-09-19T07:15:14;17.70;99.90
34873;DHT22;21084;51.098;14.506;2023-09-19T07:17:42;17.70;99.90
34873;DHT22;21084;51.098;14.506;2023-09-19T07:20:12;17.70;99.90
34873;DHT22;21084;51.098;14.506;2023-09-19T07:22:44;17.60;99.90
34873;DHT22;21084;51.098;14.506;2023-09-19T07:25:13;17.60;99.90
34873;DHT22;21084;51.098;14.506;2023-09-19T07:27:42;17.70;99.90
34873;DHT22;21084;51.098;14.506;2023-09-19T07:30:11;17.70;99.90
34873;DHT22;21084;51.098;14.506;2023-09-19T07:32:39;17.60;99.90
34873;DHT22;21084;51.098;14.506;2023-09-19T07:35:08;17.60;99.90
34873;DHT22;21084;51.098;14.506;2023-09-19T07:37:37;17.60;99.90
34873;DHT22;21084;51.098;14.506;2023-09-19T07:40:08;17.80;99.90
34873;DHT22;21084;51.098;14.506;2023-09-19T07:42:36;17.80;99.90
34873;DHT22;21084;51.098;14.506;2023-09-19T07:45:08;17.90;99.90
34873;DHT22;21084;51.098;14.506;2023-09-19T07:47:36;17.90;99.90
34873;DHT22;21084;51.098;14.506;2023-09-19T07:50:05;18.20;99.90
34873;DHT22;21084;51.098;14.506;2023-09-19T07:52:34;18.20;99.90
34873;DHT22;21084;51.098;14.506;2023-09-19T07:55:03;18.00;99.90
34873;DHT22;21084;51.098;14.506;2023-09-19T07:57:37;17.90;99.90
34873;DHT22;21084;51.098;14.506;2023-09-19T08:00:07;18.00;99.90
34873;DHT22;21084;51.098;14.506;2023-09-19T08:02:37;18.20;99.90
34873;DHT22;21084;51.098;14.506;2023-09-19T08:05:06;18.30;99.90
34873;DHT22;21084;51.098;14.506;2023-09-19T08:07:37;18.30;99.90
34873;DHT22;21084;51.098;14.506;2023-09-19T08:10:06;18.50;99.90
34873;DHT22;21084;51.098;14.506;2023-09-19T08:12:42;18.20;99.90
34873;DHT22;21084;51.098;14.506;2023-09-19T08:15:13;18.30;99.90
34873;DHT22;21084;51.098;14.506;2023-09-19T08:17:42;18.20;99.90
34873;DHT22;21084;51.098;14.506;2023-09-19T08:20:11;18.60;99.90
34873;DHT22;21084;51.098;14.506;2023-09-19T08:22:43;18.70;99.90
34873;DHT22;21084;51.098;14.506;2023-09-19T08:25:15;18.90;99.90
34873;DHT22;21084;51.098;14.506;2023-09-19T08:27:47;19.10;99.90
34873;DHT22;21084;51.098;14.506;2023-09-19T08:30:16;19.50;99.90
34873;DHT22;21084;51.098;14.506;2023-09-19T08:32:48;19.70;99.90
34873;DHT22;21084;51.098;14.506;2023-09-19T08:35:16;19.40;99.90
34873;DHT22;21084;51.098;14.506;2023-09-19T08:37:45;19.00;99.90
34873;DHT22;21084;51.098;14.506;2023-09-19T08:40:13;18.80;99.90
34873;DHT22;21084;51.098;14.506;2023-09-19T08:42:50;18.60;99.90
34873;DHT22;21084;51.098;14.506;2023-09-19T08:45:19;18.50;99.90
34873;DHT22;21084;51.098;14.506;2023-09-19T08:47:50;18.80;99.90
34873;DHT22;21084;51.098;14.506;2023-09-19T08:50:23;19.20;99.90
34873;DHT22;21084;51.098;14.506;2023-09-19T08:52:55;19.90;99.90
34873;DHT22;21084;51.098;14.506;2023-09-19T08:55:27;20.80;99.90
34873;DHT22;21084;51.098;14.506;2023-09-19T08:57:59;20.90;99.90
34873;DHT22;21084;51.098;14.506;2023-09-19T09:00:28;20.50;99.90
34873;DHT22;21084;51.098;14.506;2023-09-19T09:02:57;20.40;99.90
34873;DHT22;21084;51.098;14.506;2023-09-19T09:05:27;20.30;99.90
34873;DHT22;21084;51.098;14.506;2023-09-19T09:07:57;20.30;99.90
34873;DHT22;21084;51.098;14.506;2023-09-19T09:10:27;20.10;99.90
34873;DHT22;21084;51.098;14.506;2023-09-19T09:12:55;20.20;99.80
34873;DHT22;21084;51.098;14.506;2023-09-19T09:15:26;20.50;99.80
34873;DHT22;21084;51.098;14.506;2023-09-19T09:17:56;20.40;98.70
34873;DHT22;21084;51.098;14.506;2023-09-19T09:20:25;19.90;98.90
34873;DHT22;21084;51.098;14.506;2023-09-19T09:22:55;19.90;98.40
34873;DHT22;21084;51.098;14.506;2023-09-19T09:28:10;20.30;98.00
34873;DHT22;21084;51.098;14.506;2023-09-19T09:30:40;20.60;97.40
34873;DHT22;21084;51.098;14.506;2023-09-19T09:33:08;20.30;97.10
34873;DHT22;21084;51.098;14.506;2023-09-19T09:35:47;20.00;97.40
34873;DHT22;21084;51.098;14.506;2023-09-19T09:38:19;20.00;97.40
34873;DHT22;21084;51.098;14.506;2023-09-19T09:40:48;19.60;96.80
34873;DHT22;21084;51.098;14.506;2023-09-19T09:43:28;19.60;97.60
34873;DHT22;21084;51.098;14.506;2023-09-19T09:46:07;19.50;97.00
34873;DHT22;21084;51.098;14.506;2023-09-19T09:48:57;19.20;97.50
34873;DHT22;21084;51.098;14.506;2023-09-19T09:51:45;19.00;97.70
34873;DHT22;21084;51.098;14.506;2023-09-19T09:54:25;18.90;98.20
34873;DHT22;21084;51.098;14.506;2023-09-19T09:56:55;19.10;98.60
34873;DHT22;21084;51.098;14.506;2023-09-19T10:02:11;20.20;97.80
34873;DHT22;21084;51.098;14.506;2023-09-19T10:04:41;20.90;96.80
34873;DHT22;21084;51.098;14.506;2023-09-19T10:07:25;20.90;95.30
34873;DHT22;21084;51.098;14.506;2023-09-19T10:09:59;21.30;95.60
34873;DHT22;21084;51.098;14.506;2023-09-19T10:12:41;21.70;95.30
34873;DHT22;21084;51.098;14.506;2023-09-19T10:15:10;21.90;95.20
34873;DHT22;21084;51.098;14.506;2023-09-19T10:17:44;22.50;94.90
34873;DHT22;21084;51.098;14.506;2023-09-19T10:20:13;22.20;93.90
34873;DHT22;21084;51.098;14.506;2023-09-19T10:22:56;22.70;94.40
34873;DHT22;21084;51.098;14.506;2023-09-19T10:25:25;23.30;93.80
34873;DHT22;21084;51.098;14.506;2023-09-19T10:27:56;22.90;94.00
34873;DHT22;21084;51.098;14.506;2023-09-19T10:30:27;22.50;92.90
34873;DHT22;21084;51.098;14.506;2023-09-19T10:33:01;21.80;93.60
34873;DHT22;21084;51.098;14.506;2023-09-19T10:35:30;21.50;94.00
34873;DHT22;21084;51.098;14.506;2023-09-19T10:38:00;21.90;93.70
34873;DHT22;21084;51.098;14.506;2023-09-19T10:40:30;21.30;93.80
34873;DHT22;21084;51.098;14.506;2023-09-19T10:43:00;21.10;94.70
34873;DHT22;21084;51.098;14.506;2023-09-19T10:45:30;21.10;94.30
34873;DHT22;21084;51.098;14.506;2023-09-19T10:48:01;22.40;93.90
34873;DHT22;21084;51.098;14.506;2023-09-19T10:50:31;22.80;92.70
34873;DHT22;21084;51.098;14.506;2023-09-19T10:53:02;23.20;93.10
34873;DHT22;21084;51.098;14.506;2023-09-19T10:55:35;23.60;92.30
34873;DHT22;21084;51.098;14.506;2023-09-19T10:58:04;23.80;91.40
34873;DHT22;21084;51.098;14.506;2023-09-19T11:00:51;23.20;90.70
34873;DHT22;21084;51.098;14.506;2023-09-19T11:03:22;22.80;91.00
34873;DHT22;21084;51.098;14.506;2023-09-19T11:06:01;22.80;90.70
34873;DHT22;21084;51.098;14.506;2023-09-19T11:14:13;23.30;90.50
34873;DHT22;21084;51.098;14.506;2023-09-19T11:19:38;23.10;90.30
34873;DHT22;21084;51.098;14.506;2023-09-19T11:22:27;23.20;90.00
34873;DHT22;21084;51.098;14.506;2023-09-19T11:30:54;22.40;91.10
34873;DHT22;21084;51.098;14.506;2023-09-19T11:33:25;22.00;91.20
34873;DHT22;21084;51.098;14.506;2023-09-19T11:36:00;22.70;92.10
34873;DHT22;21084;51.098;14.506;2023-09-19T11:46:54;21.30;91.40
34873;DHT22;21084;51.098;14.506;2023-09-19T11:49:25;20.80;91.90
34873;DHT22;21084;51.098;14.506;2023-09-19T11:52:00;20.60;92.40
34873;DHT22;21084;51.098;14.506;2023-09-19T11:54:32;20.70;92.40
34873;DHT22;21084;51.098;14.506;2023-09-19T11:57:01;20.70;92.70
34873;DHT22;21084;51.098;14.506;2023-09-19T11:59:30;20.40;92.60
34873;DHT22;21084;51.098;14.506;2023-09-19T12:02:01;21.10;93.80
34873;DHT22;21084;51.098;14.506;2023-09-19T12:04:35;21.60;92.60
34873;DHT22;21084;51.098;14.506;2023-09-19T12:07:08;21.80;92.30
34873;DHT22;21084;51.098;14.506;2023-09-19T12:09:43;22.30;91.70
34873;DHT22;21084;51.098;14.506;2023-09-19T12:12:19;22.10;91.00
34873;DHT22;21084;51.098;14.506;2023-09-19T12:14:47;21.60;91.50
34873;DHT22;21084;51.098;14.506;2023-09-19T12:17:16;21.90;91.70
34873;DHT22;21084;51.098;14.506;2023-09-19T12:19:49;22.30;92.40
34873;DHT22;21084;51.098;14.506;2023-09-19T12:22:19;22.60;91.20
34873;DHT22;21084;51.098;14.506;2023-09-19T12:24:48;22.40;91.30
34873;DHT22;21084;51.098;14.506;2023-09-19T12:27:18;22.80;91.00
34873;DHT22;21084;51.098;14.506;2023-09-19T12:29:47;22.70;90.40
34873;DHT22;21084;51.098;14.506;2023-09-19T12:32:17;22.60;90.80
34873;DHT22;21084;51.098;14.506;2023-09-19T12:34:51;23.30;90.50
34873;DHT22;21084;51.098;14.506;2023-09-19T12:37:23;23.00;89.20
34873;DHT22;21084;51.098;14.506;2023-09-19T12:40:06;22.70;90.10
34873;DHT22;21084;51.098;14.506;2023-09-19T12:42:45;22.90;90.70
34873;DHT22;21084;51.098;14.506;2023-09-19T12:45:14;22.70;90.40
34873;DHT22;21084;51.098;14.506;2023-09-19T12:53:26;22.00;90.40
34873;DHT22;21084;51.098;14.506;2023-09-19T12:55:59;21.80;90.40
34873;DHT22;21084;51.098;14.506;2023-09-19T12:58:28;21.90;90.20
34873;DHT22;21084;51.098;14.506;2023-09-19T13:00:59;22.10;88.80
34873;DHT22;21084;51.098;14.506;2023-09-19T13:03:28;22.00;89.40
34873;DHT22;21084;51.098;14.506;2023-09-19T13:05:59;22.20;90.30
34873;DHT22;21084;51.098;14.506;2023-09-19T13:08:31;22.90;89.80
34873;DHT22;21084;51.098;14.506;2023-09-19T13:11:01;22.70;87.40
34873;DHT22;21084;51.098;14.506;2023-09-19T13:13:29;21.90;87.90
34873;DHT22;21084;51.098;14.506;2023-09-19T13:15:57;21.90;87.70
34873;DHT22;21084;51.098;14.506;2023-09-19T13:18:26;21.80;88.00
34873;DHT22;21084;51.098;14.506;2023-09-19T13:21:07;22.20;86.60
34873;DHT22;21084;51.098;14.506;2023-09-19T13:23:40;22.50;85.20
34873;DHT22;21084;51.098;14.506;2023-09-19T13:26:09;22.70;80.60
34873;DHT22;21084;51.098;14.506;2023-09-19T13:28:38;22.50;81.30
34873;DHT22;21084;51.098;14.506;2023-09-19T13:31:06;23.00;82.20
34873;DHT22;21084;51.098;14.506;2023-09-19T13:33:36;23.40;79.30
34873;DHT22;21084;51.098;14.506;2023-09-19T13:36:10;22.80;80.40
34873;DHT22;21084;51.098;14.506;2023-09-19T13:38:41;23.10;81.50
34873;DHT22;21084;51.098;14.506;2023-09-19T13:41:14;22.80;80.60
34873;DHT22;21084;51.098;14.506;2023-09-19T13:43:43;22.50;80.00
34873;DHT22;21084;51.098;14.506;2023-09-19T13:46:15;22.20;82.10
34873;DHT22;21084;51.098;14.506;2023-09-19T13:48:45;22.10;82.50
34873;DHT22;21084;51.098;14.506;2023-09-19T13:51:13;22.10;83.80
34873;DHT22;21084;51.098;14.506;2023-09-19T13:53:44;22.60;85.00
34873;DHT22;21084;51.098;14.506;2023-09-19T13:56:12;22.70;82.60
34873;DHT22;21084;51.098;14.506;2023-09-19T13:58:40;22.30;82.60
34873;DHT22;21084;51.098;14.506;2023-09-19T14:01:09;22.40;81.70
34873;DHT22;21084;51.098;14.506;2023-09-19T14:03:40;22.70;82.70
34873;DHT22;21084;51.098;14.506;2023-09-19T14:06:13;22.80;83.50
34873;DHT22;21084;51.098;14.506;2023-09-19T14:08:43;23.10;82.00
34873;DHT22;21084;51.098;14.506;2023-09-19T14:11:15;23.30;81.30
34873;DHT22;21084;51.098;14.506;2023-09-19T14:13:43;23.50;81.00
34873;DHT22;21084;51.098;14.506;2023-09-19T14:16:16;23.10;80.10
34873;DHT22;21084;51.098;14.506;2023-09-19T14:18:45;22.80;80.60
34873;DHT22;21084;51.098;14.506;2023-09-19T14:21:14;22.60;84.70
34873;DHT22;21084;51.098;14.506;2023-09-19T14:23:44;22.80;85.30
34873;DHT22;21084;51.098;14.506;2023-09-19T14:26:13;22.50;84.20
34873;DHT22;21084;51.098;14.506;2023-09-19T14:28:42;22.30;85.00
34873;DHT22;21084;51.098;14.506;2023-09-19T14:31:12;22.60;86.50
34873;DHT22;21084;51.098;14.506;2023-09-19T14:33:42;22.70;84.60
34873;DHT22;21084;51.098;14.506;2023-09-19T14:36:11;22.40;84.00
34873;DHT22;21084;51.098;14.506;2023-09-19T14:38:40;22.80;86.30
34873;DHT22;21084;51.098;14.506;2023-09-19T14:41:09;22.90;85.50
34873;DHT22;21084;51.098;14.506;2023-09-19T14:43:38;22.90;85.30
34873;DHT22;21084;51.098;14.506;2023-09-19T14:46:06;22.70;83.30
34873;DHT22;21084;51.098;14.506;2023-09-19T14:48:37;22.50;84.60
34873;DHT22;21084;51.098;14.506;2023-09-19T14:51:06;22.20;87.00
34873;DHT22;21084;51.098;14.506;2023-09-19T14:53:36;22.20;85.80
34873;DHT22;21084;51.098;14.506;2023-09-19T14:56:06;22.20;86.00
34873;DHT22;21084;51.098;14.506;2023-09-19T14:58:37;22.50;85.50
34873;DHT22;21084;51.098;14.506;2023-09-19T15:01:07;22.70;84.50
34873;DHT22;21084;51.098;14.506;2023-09-19T15:03:38;22.70;83.50
34873;DHT22;21084;51.098;14.506;2023-09-19T15:06:07;22.50;84.20
34873;DHT22;21084;51.098;14.506;2023-09-19T15:08:37;22.80;85.10
34873;DHT22;21084;51.098;14.506;2023-09-19T15:11:07;22.70;83.50
34873;DHT22;21084;51.098;14.506;2023-09-19T15:13:39;22.90;86.90
34873;DHT22;21084;51.098;14.506;2023-09-19T15:16:08;23.30;83.90
34873;DHT22;21084;51.098;14.506;2023-09-19T15:18:37;22.60;84.20
34873;DHT22;21084;51.098;14.506;2023-09-19T15:21:08;22.50;83.30
34873;DHT22;21084;51.098;14.506;2023-09-19T15:23:37;22.20;83.40
34873;DHT22;21084;51.098;14.506;2023-09-19T15:26:06;22.30;83.20
34873;DHT22;21084;51.098;14.506;2023-09-19T15:28:35;22.10;82.00
34873;DHT22;21084;51.098;14.506;2023-09-19T15:31:07;22.20;81.10
34873;DHT22;21084;51.098;14.506;2023-09-19T15:33:36;22.40;80.80
34873;DHT22;21084;51.098;14.506;2023-09-19T15:36:05;22.40;82.20
34873;DHT22;21084;51.098;14.506;2023-09-19T15:38:50;22.10;83.60
34873;DHT22;21084;51.098;14.506;2023-09-19T15:41:23;22.00;82.90
34873;DHT22;21084;51.098;14.506;2023-09-19T15:43:52;22.00;83.70
34873;DHT22;21084;51.098;14.506;2023-09-19T15:46:22;21.50;80.10
34873;DHT22;21084;51.098;14.506;2023-09-19T15:48:50;21.30;81.80
34873;DHT22;21084;51.098;14.506;2023-09-19T15:51:19;21.10;80.10
34873;DHT22;21084;51.098;14.506;2023-09-19T15:53:48;21.10;82.00
34873;DHT22;21084;51.098;14.506;2023-09-19T15:56:17;21.00;81.40
34873;DHT22;21084;51.098;14.506;2023-09-19T15:58:46;20.90;81.80
34873;DHT22;21084;51.098;14.506;2023-09-19T16:01:14;21.00;82.10
34873;DHT22;21084;51.098;14.506;2023-09-19T16:03:44;20.90;80.80
34873;DHT22;21084;51.098;14.506;2023-09-19T16:06:14;20.80;81.80
34873;DHT22;21084;51.098;14.506;2023-09-19T16:08:43;20.80;82.10